Time;durP1;ratioP1;P1;durP2;ratioP2;P2;SDS_P1;SDS_P2;PMS_P1;PMS_P2;Temp;Humidity;BMP_temperature;BMP_pressure;BME280_temperature;BME280_humidity;BME280_pressure;Samples;Min_cycle;Max_cycle;Signal;HPM_P1;HPM_P2
2023/10/19 00:00:36;;;;;;;18.90;16.40;;;6.60;85.80;;;;;;6199011;28;20190;-63
2023/10/19 00:03:37;;;;;;;20.30;16.83;;;6.60;85.90;;;;;;6206671;28;20202;-62
2023/10/19 00:06:40;;;;;;;20.10;17.00;;;6.60;85.70;;;;;;6207497;28;20183;-62
2023/10/19 00:09:44;;;;;;;19.93;16.37;;;6.60;85.70;;;;;;6195553;28;20203;-62
2023/10/19 00:12:52;;;;;;;20.30;15.90;;;6.60;86.00;;;;;;6196378;28;20229;-63
2023/10/19 00:15:53;;;;;;;21.40;17.40;;;6.60;86.40;;;;;;6195044;28;20191;-62
2023/10/19 00:18:54;;;;;;;21.70;18.43;;;6.60;85.90;;;;;;6213912;28;20190;-62
2023/10/19 00:22:01;;;;;;;20.27;17.83;;;6.60;86.10;;;;;;6192241;28;20197;-62
2023/10/19 00:25:03;;;;;;;19.30;17.17;;;6.60;86.10;;;;;;6203656;28;20279;-62
2023/10/19 00:28:04;;;;;;;19.97;16.10;;;6.60;86.40;;;;;;6207259;28;20211;-62
2023/10/19 00:31:08;;;;;;;19.90;17.13;;;6.60;86.50;;;;;;6214140;28;20240;-62
2023/10/19 00:34:13;;;;;;;18.43;15.63;;;6.60;86.70;;;;;;6193104;28;20214;-62
2023/10/19 00:37:19;;;;;;;19.93;16.43;;;6.70;86.70;;;;;;6191586;28;20191;-62
2023/10/19 00:40:33;;;;;;;19.47;16.00;;;6.70;86.30;;;;;;6220542;28;20199;-62
2023/10/19 00:43:36;;;;;;;19.83;17.07;;;6.80;86.40;;;;;;6212879;28;20206;-62
2023/10/19 00:46:43;;;;;;;18.40;16.43;;;6.80;87.00;;;;;;6193203;28;20242;-62
2023/10/19 00:49:46;;;;;;;19.53;16.20;;;6.80;86.90;;;;;;6212852;28;20203;-62
2023/10/19 00:52:49;;;;;;;20.47;16.53;;;6.90;86.80;;;;;;6193629;28;20302;-62
2023/10/19 00:55:52;;;;;;;19.10;16.37;;;6.90;86.20;;;;;;6217634;28;20192;-62
2023/10/19 00:58:56;;;;;;;19.87;16.80;;;6.80;86.30;;;;;;6209135;28;20214;-62
2023/10/19 01:02:16;;;;;;;19.47;16.57;;;6.80;86.20;;;;;;6230212;28;20219;-62
2023/10/19 01:05:21;;;;;;;16.57;14.83;;;6.70;86.90;;;;;;6212418;28;20207;-62
2023/10/19 01:08:34;;;;;;;19.23;15.67;;;6.70;86.70;;;;;;6209972;28;20195;-62
2023/10/19 01:11:35;;;;;;;18.57;15.50;;;6.70;86.20;;;;;;6190753;28;20302;-62
2023/10/19 01:14:37;;;;;;;19.37;16.40;;;6.70;86.80;;;;;;6210890;28;20210;-62
2023/10/19 01:17:40;;;;;;;17.17;15.37;;;6.70;86.50;;;;;;6214227;28;20195;-62
2023/10/19 01:20:50;;;;;;;18.80;15.57;;;6.70;86.70;;;;;;6192960;28;20195;-62
2023/10/19 01:23:52;;;;;;;20.13;17.67;;;6.70;86.40;;;;;;6199746;28;20256;-62
2023/10/19 01:26:53;;;;;;;18.00;15.37;;;6.60;86.60;;;;;;6196077;28;20300;-62
2023/10/19 01:29:59;;;;;;;20.73;16.47;;;6.60;86.30;;;;;;6200761;28;20222;-62
2023/10/19 01:33:00;;;;;;;18.83;16.60;;;-16.30;88.30;;;;;;6217655;28;20222;-63
2023/10/19 01:36:11;;;;;;;18.63;16.53;;;-37.80;93.60;;;;;;6184396;28;20186;-62
2023/10/19 01:39:12;;;;;;;20.33;16.60;;;-41.50;94.90;;;;;;6193733;28;20246;-62
2023/10/19 01:42:13;;;;;;;19.47;16.33;;;-47.20;96.30;;;;;;6188845;28;20195;-62
2023/10/19 01:45:14;;;;;;;20.23;17.33;;;;;;;;;;6191727;28;20280;-62
2023/10/19 01:48:16;;;;;;;19.07;16.43;;;6.60;86.30;;;;;;6223450;28;20189;-62
2023/10/19 01:51:16;;;;;;;19.60;16.97;;;6.50;86.10;;;;;;6215166;28;20270;-62
2023/10/19 01:54:22;;;;;;;18.53;16.43;;;6.40;86.00;;;;;;6195143;28;20190;-62
2023/10/19 01:57:25;;;;;;;19.83;16.57;;;6.40;86.00;;;;;;6183719;28;20196;-62
2023/10/19 02:00:26;;;;;;;21.57;16.57;;;6.30;86.20;;;;;;6198209;28;20206;-62
2023/10/19 02:03:32;;;;;;;19.37;16.00;;;6.30;86.40;;;;;;6195493;28;20202;-62
2023/10/19 02:09:35;;;;;;;21.90;17.93;;;6.30;86.50;;;;;;6238477;28;20194;-62
2023/10/19 02:12:35;;;;;;;18.87;16.37;;;6.20;86.70;;;;;;6188892;28;20226;-62
2023/10/19 02:15:36;;;;;;;18.90;16.33;;;6.20;86.50;;;;;;6210165;28;20213;-62
2023/10/19 02:18:38;;;;;;;20.63;17.03;;;6.20;86.50;;;;;;6210763;28;20186;-63
2023/10/19 02:21:40;;;;;;;17.50;15.60;;;6.20;86.50;;;;;;6206761;28;20186;-62
2023/10/19 02:24:40;;;;;;;18.53;15.60;;;6.10;86.70;;;;;;6209819;28;20241;-62
2023/10/19 02:27:42;;;;;;;19.03;15.90;;;6.20;86.50;;;;;;6181910;28;20183;-62
2023/10/19 02:30:43;;;;;;;18.30;15.87;;;6.20;86.50;;;;;;6207931;28;20187;-62
2023/10/19 02:33:51;;;;;;;22.47;16.07;;;6.10;86.00;;;;;;6179662;28;20207;-62
2023/10/19 02:36:53;;;;;;;19.87;16.10;;;6.10;86.40;;;;;;6206271;28;20214;-62
2023/10/19 02:39:54;;;;;;;18.17;15.93;;;6.10;86.70;;;;;;6187920;28;20187;-62
2023/10/19 02:42:55;;;;;;;18.27;15.87;;;6.00;86.30;;;;;;6190413;28;20190;-62
2023/10/19 02:45:56;;;;;;;19.77;17.20;;;6.00;86.60;;;;;;6206297;28;20190;-62
2023/10/19 02:48:56;;;;;;;20.53;17.43;;;6.10;86.70;;;;;;6191180;28;20221;-62
2023/10/19 02:52:03;;;;;;;19.03;15.77;;;6.00;86.20;;;;;;6193691;28;20218;-62
2023/10/19 02:55:05;;;;;;;18.50;16.23;;;6.00;86.10;;;;;;6207210;28;20218;-62
2023/10/19 02:58:05;;;;;;;18.30;15.40;;;6.00;86.00;;;;;;6210546;28;20190;-62
2023/10/19 03:01:17;;;;;;;17.27;14.97;;;6.00;86.00;;;;;;6194580;28;20187;-62
2023/10/19 03:04:18;;;;;;;17.00;14.97;;;6.00;86.20;;;;;;6216863;28;20179;-62
2023/10/19 03:07:19;;;;;;;19.70;16.20;;;5.90;85.90;;;;;;6206416;28;20209;-62
2023/10/19 03:10:41;;;;;;;17.90;15.97;;;5.90;85.90;;;;;;6212880;28;20185;-62
2023/10/19 03:13:43;;;;;;;18.37;15.40;;;5.90;86.30;;;;;;6216620;28;20277;-61
2023/10/19 03:16:45;;;;;;;19.03;15.93;;;5.90;86.20;;;;;;6178459;28;20191;-62
2023/10/19 03:19:46;;;;;;;17.47;15.43;;;5.90;86.80;;;;;;6225056;28;20190;-62
2023/10/19 03:22:47;;;;;;;19.03;16.60;;;5.90;86.50;;;;;;6203333;28;20185;-62
2023/10/19 03:29:15;;;;;;;19.07;16.30;;;5.80;87.40;;;;;;6230821;28;20194;-62
2023/10/19 03:32:16;;;;;;;20.00;16.07;;;5.90;87.20;;;;;;6187610;28;20301;-62
2023/10/19 03:35:17;;;;;;;21.80;17.17;;;5.90;87.30;;;;;;6214234;28;20231;-62
2023/10/19 03:38:22;;;;;;;18.90;15.47;;;5.80;87.10;;;;;;6195450;28;20229;-62
2023/10/19 03:41:26;;;;;;;18.70;15.43;;;5.80;87.00;;;;;;6192977;28;20199;-63
2023/10/19 03:44:39;;;;;;;16.70;14.80;;;5.80;86.80;;;;;;6188094;28;20200;-63
2023/10/19 03:47:43;;;;;;;18.37;15.50;;;5.70;86.80;;;;;;6196473;28;20228;-62
2023/10/19 03:50:44;;;;;;;17.47;15.47;;;5.70;86.50;;;;;;6208000;28;20227;-62
2023/10/19 03:53:55;;;;;;;19.23;15.50;;;5.70;86.70;;;;;;6195277;28;20319;-63
2023/10/19 03:56:57;;;;;;;18.43;15.33;;;5.70;86.80;;;;;;6194652;28;20233;-62
2023/10/19 03:59:57;;;;;;;20.37;16.27;;;5.70;87.30;;;;;;6189100;28;20195;-63
2023/10/19 04:02:58;;;;;;;18.23;15.93;;;5.70;87.20;;;;;;6193262;28;20253;-63
2023/10/19 04:06:01;;;;;;;16.53;14.70;;;5.80;86.70;;;;;;6194370;28;20195;-62
2023/10/19 04:09:04;;;;;;;18.93;14.63;;;5.80;86.80;;;;;;6199915;28;20187;-62
2023/10/19 04:12:05;;;;;;;21.33;15.57;;;5.80;86.50;;;;;;6197736;28;20219;-62
2023/10/19 04:15:12;;;;;;;16.70;14.90;;;5.70;86.60;;;;;;6213833;28;20254;-67
2023/10/19 04:18:13;;;;;;;20.77;16.00;;;5.70;86.70;;;;;;6213135;28;20183;-62
2023/10/19 04:21:14;;;;;;;19.57;14.47;;;5.70;86.90;;;;;;6206188;28;20225;-62
2023/10/19 04:24:17;;;;;;;17.50;15.60;;;5.70;86.90;;;;;;6181843;28;20222;-61
2023/10/19 04:27:23;;;;;;;21.47;15.60;;;5.70;86.80;;;;;;6214642;28;20258;-61
2023/10/19 04:30:26;;;;;;;17.90;14.80;;;5.70;87.00;;;;;;6223584;28;20198;-61
2023/10/19 04:33:28;;;;;;;18.67;15.70;;;5.70;86.60;;;;;;6229787;28;20210;-61
2023/10/19 04:36:29;;;;;;;17.13;14.40;;;5.70;86.80;;;;;;6200586;28;20186;-61
2023/10/19 04:39:30;;;;;;;19.47;15.63;;;5.70;86.50;;;;;;6191458;28;20219;-61
2023/10/19 04:42:32;;;;;;;18.67;15.53;;;5.60;86.90;;;;;;6207142;28;20197;-61
2023/10/19 04:45:33;;;;;;;18.77;14.47;;;5.60;86.80;;;;;;6198935;28;20329;-61
2023/10/19 04:48:35;;;;;;;19.97;16.03;;;5.60;87.00;;;;;;6191464;28;20194;-61
2023/10/19 04:51:38;;;;;;;20.50;15.87;;;5.60;87.20;;;;;;6193322;28;20208;-61
2023/10/19 04:54:39;;;;;;;18.20;16.17;;;5.60;87.20;;;;;;6212822;28;20187;-61
2023/10/19 04:57:40;;;;;;;16.60;14.80;;;5.60;87.50;;;;;;6205756;28;20205;-61
2023/10/19 05:00:41;;;;;;;20.83;15.47;;;5.60;87.50;;;;;;6191391;28;20191;-61
2023/10/19 05:03:42;;;;;;;17.27;14.53;;;5.60;87.80;;;;;;6197341;28;20182;-61
2023/10/19 05:06:42;;;;;;;18.90;15.27;;;5.70;87.60;;;;;;6216687;28;20194;-61
2023/10/19 05:09:44;;;;;;;20.57;16.33;;;5.70;87.70;;;;;;6184711;28;20267;-61
2023/10/19 05:12:45;;;;;;;17.50;15.03;;;5.70;87.70;;;;;;6222808;28;20207;-61
2023/10/19 05:15:46;;;;;;;19.43;15.43;;;5.70;88.10;;;;;;6219859;28;20269;-61
2023/10/19 05:18:46;;;;;;;16.67;14.90;;;5.70;88.10;;;;;;6187505;28;20191;-61
2023/10/19 05:21:47;;;;;;;20.47;16.40;;;5.70;88.00;;;;;;6198693;28;20195;-61
2023/10/19 05:24:48;;;;;;;18.23;15.23;;;5.80;88.00;;;;;;6189313;28;20251;-61
2023/10/19 05:27:49;;;;;;;21.27;15.07;;;5.80;87.80;;;;;;6190646;28;20194;-61
2023/10/19 05:30:50;;;;;;;20.60;16.30;;;5.80;87.60;;;;;;6192664;28;20252;-61
2023/10/19 05:33:50;;;;;;;17.50;14.87;;;5.80;87.60;;;;;;6194951;28;20214;-61
2023/10/19 05:36:51;;;;;;;20.63;15.53;;;5.80;87.20;;;;;;6194005;28;20179;-61
2023/10/19 05:39:52;;;;;;;18.10;14.27;;;5.80;87.30;;;;;;6186851;28;20188;-61
2023/10/19 05:42:53;;;;;;;18.70;15.40;;;5.90;87.30;;;;;;6192429;28;20198;-61
2023/10/19 05:45:53;;;;;;;19.57;15.07;;;5.90;88.00;;;;;;6205166;28;20186;-61
2023/10/19 05:48:56;;;;;;;19.27;15.80;;;5.90;88.00;;;;;;6221914;28;20225;-61
2023/10/19 05:51:56;;;;;;;16.80;14.90;;;5.90;87.80;;;;;;6186017;28;20207;-61
2023/10/19 05:54:57;;;;;;;17.43;14.60;;;6.00;88.20;;;;;;6199684;28;20183;-61
2023/10/19 05:57:59;;;;;;;18.17;14.80;;;6.00;87.90;;;;;;6186328;28;20191;-60
2023/10/19 06:01:00;;;;;;;16.63;14.57;;;6.00;88.10;;;;;;6197725;28;20250;-61
2023/10/19 06:04:00;;;;;;;18.97;15.70;;;6.00;88.30;;;;;;6187442;28;20217;-61
2023/10/19 06:07:02;;;;;;;17.27;15.47;;;6.10;88.70;;;;;;6204441;28;20184;-60
2023/10/19 06:10:06;;;;;;;19.27;15.60;;;6.10;88.00;;;;;;6199972;28;20187;-61
2023/10/19 06:13:09;;;;;;;20.27;15.90;;;6.10;88.40;;;;;;6211602;28;20219;-62
2023/10/19 06:16:10;;;;;;;18.00;15.13;;;6.10;88.60;;;;;;6213068;28;20183;-61
2023/10/19 06:19:11;;;;;;;19.33;15.50;;;6.20;88.70;;;;;;6202572;28;20186;-61
2023/10/19 06:22:12;;;;;;;19.17;15.33;;;6.20;88.70;;;;;;6194750;28;20209;-61
2023/10/19 06:25:14;;;;;;;16.73;15.03;;;6.30;88.60;;;;;;6180658;28;20243;-61
2023/10/19 06:28:15;;;;;;;17.67;14.87;;;6.30;88.50;;;;;;6183020;28;20199;-61
2023/10/19 06:31:17;;;;;;;19.07;15.27;;;6.40;88.70;;;;;;6193895;28;20215;-61
2023/10/19 06:34:18;;;;;;;18.27;14.60;;;6.40;88.60;;;;;;6186646;28;20192;-61
2023/10/19 06:37:19;;;;;;;17.63;14.37;;;6.40;88.70;;;;;;6206374;28;20233;-61
2023/10/19 06:40:20;;;;;;;20.07;15.03;;;6.50;88.80;;;;;;6181809;28;20187;-61
2023/10/19 06:43:23;;;;;;;19.23;14.90;;;6.50;88.80;;;;;;6202369;28;20201;-61
2023/10/19 06:46:24;;;;;;;18.47;14.80;;;6.60;89.10;;;;;;6187810;28;20206;-61
2023/10/19 06:49:25;;;;;;;18.23;14.13;;;6.70;88.70;;;;;;6174269;28;20218;-61
2023/10/19 06:52:25;;;;;;;17.30;14.27;;;6.70;88.60;;;;;;6188898;28;20210;-61
2023/10/19 06:55:28;;;;;;;18.60;14.13;;;6.80;88.70;;;;;;6177266;28;20259;-61
2023/10/19 06:58:29;;;;;;;18.57;14.23;;;6.80;88.80;;;;;;6183549;28;20285;-61
2023/10/19 07:01:32;;;;;;;17.13;14.43;;;6.90;88.80;;;;;;6185204;28;20218;-61
2023/10/19 07:04:32;;;;;;;18.10;13.83;;;6.90;88.80;;;;;;6180672;28;20187;-61
2023/10/19 07:07:33;;;;;;;16.77;14.27;;;7.00;88.60;;;;;;6171071;28;20206;-61
2023/10/19 07:10:34;;;;;;;21.30;15.43;;;7.00;88.20;;;;;;6180533;28;20195;-61
2023/10/19 07:13:35;;;;;;;16.80;14.20;;;7.20;88.00;;;;;;6200858;28;20215;-61
2023/10/19 07:16:36;;;;;;;19.17;14.57;;;7.20;88.00;;;;;;6199688;28;20198;-62
2023/10/19 07:19:37;;;;;;;18.47;14.13;;;7.20;88.00;;;;;;6192329;28;20190;-61
2023/10/19 07:22:39;;;;;;;18.00;14.17;;;7.30;87.80;;;;;;6185748;28;20199;-61
2023/10/19 07:25:43;;;;;;;15.60;13.53;;;7.40;87.80;;;;;;6185423;28;20293;-61
2023/10/19 07:28:43;;;;;;;17.77;14.63;;;7.50;87.20;;;;;;6209252;28;20194;-61
2023/10/19 07:31:44;;;;;;;15.97;13.37;;;7.50;86.80;;;;;;6187712;28;20211;-61
2023/10/19 07:34:45;;;;;;;17.00;13.47;;;7.60;86.70;;;;;;6188572;28;20239;-61
2023/10/19 07:37:48;;;;;;;16.43;13.07;;;7.80;86.70;;;;;;6207787;28;20183;-61
2023/10/19 07:40:52;;;;;;;17.07;14.23;;;7.80;86.80;;;;;;6201379;28;20188;-61
2023/10/19 07:43:53;;;;;;;14.77;12.97;;;7.90;86.70;;;;;;6207472;28;20195;-61
2023/10/19 07:46:53;;;;;;;17.37;13.63;;;8.00;85.50;;;;;;6182022;28;20184;-61
2023/10/19 07:49:56;;;;;;;15.87;13.17;;;8.00;85.40;;;;;;6184643;28;20194;-61
2023/10/19 07:52:57;;;;;;;13.20;11.20;;;8.20;84.60;;;;;;6210519;28;20215;-61
2023/10/19 07:55:58;;;;;;;15.70;12.63;;;8.30;85.20;;;;;;6191742;28;20210;-61
2023/10/19 07:58:58;;;;;;;14.83;11.53;;;8.40;85.10;;;;;;6190322;28;20217;-61
2023/10/19 08:02:03;;;;;;;15.60;12.13;;;8.50;85.30;;;;;;6184304;28;20237;-61
2023/10/19 08:05:06;;;;;;;15.87;12.73;;;8.60;85.10;;;;;;6196073;28;20203;-61
2023/10/19 08:08:08;;;;;;;17.67;13.03;;;;;;;;;;6204572;28;20265;-61
2023/10/19 08:11:09;;;;;;;13.90;12.00;;;;;;;;;;6219520;28;20215;-61
2023/10/19 08:14:10;;;;;;;12.13;10.83;;;;;;;;;;6203667;28;20225;-61
2023/10/19 08:17:12;;;;;;;12.50;11.17;;;;;;;;;;6205889;28;20191;-62
2023/10/19 08:20:23;;;;;;;16.13;12.60;;;;;;;;;;6203067;28;20199;-61
2023/10/19 08:23:27;;;;;;;12.40;11.27;;;;;;;;;;6207952;28;20196;-61
2023/10/19 08:26:29;;;;;;;15.30;11.87;;;;;;;;;;6204604;28;20247;-61
2023/10/19 08:29:30;;;;;;;14.50;13.00;;;;;;;;;;6191516;28;20200;-61
2023/10/19 08:32:32;;;;;;;13.93;11.20;;;;;;;;;;6211085;28;20290;-61
2023/10/19 08:35:35;;;;;;;18.53;12.67;;;;;;;;;;6206812;28;20191;-61
2023/10/19 08:38:36;;;;;;;14.37;11.70;;;;;;;;;;6223963;28;20187;-61
2023/10/19 08:41:37;;;;;;;12.50;10.70;;;;;;;;;;6193229;28;20206;-61
2023/10/19 08:44:38;;;;;;;11.43;9.83;;;;;;;;;;6218973;28;20198;-61
2023/10/19 08:48:00;;;;;;;11.47;9.97;;;;;;;;;;6194442;28;20287;-61
2023/10/19 08:51:04;;;;;;;12.03;10.37;;;;;;;;;;6220101;28;20202;-61
2023/10/19 08:54:10;;;;;;;10.20;9.07;;;;;;;;;;6225266;28;20184;-61
2023/10/19 08:57:11;;;;;;;10.07;8.73;;;;;;;;;;6213187;28;20196;-61
2023/10/19 09:00:17;;;;;;;11.57;9.27;;;;;;;;;;6221966;28;20183;-61
2023/10/19 09:03:18;;;;;;;11.30;10.17;;;;;;;;;;6201213;28;20229;-61
2023/10/19 09:06:20;;;;;;;10.93;9.83;;;;;;;;;;6213109;28;20202;-62
2023/10/19 09:09:25;;;;;;;11.60;10.03;;;;;;;;;;6218599;28;20184;-61
2023/10/19 09:12:26;;;;;;;13.50;10.20;;;;;;;;;;6207316;28;20252;-62
2023/10/19 09:15:30;;;;;;;11.13;9.10;;;;;;;;;;6198134;28;20199;-61
2023/10/19 09:18:31;;;;;;;9.20;8.27;;;;;;;;;;6215194;28;20216;-61
2023/10/19 09:21:33;;;;;;;15.83;10.53;;;;;;;;;;6200558;28;20207;-62
2023/10/19 09:24:35;;;;;;;12.67;9.27;;;;;;;;;;6196658;28;20307;-61
2023/10/19 09:27:36;;;;;;;10.93;9.73;;;;;;;;;;6224600;28;20187;-62
2023/10/19 09:30:38;;;;;;;11.13;10.03;;;;;;;;;;6201732;28;20244;-61
2023/10/19 09:33:46;;;;;;;9.77;8.40;;;;;;;;;;6200039;28;20218;-61
2023/10/19 09:36:47;;;;;;;12.03;9.73;;;;;;;;;;6221995;28;20193;-61
2023/10/19 09:39:48;;;;;;;9.97;8.93;;;;;;;;;;6212494;28;20198;-62
2023/10/19 09:42:52;;;;;;;13.87;9.60;;;;;;;;;;6221288;28;20196;-61
2023/10/19 09:45:54;;;;;;;10.20;9.10;;;;;;;;;;6197331;28;20199;-61
2023/10/19 09:48:55;;;;;;;12.20;9.20;;;;;;;;;;6224828;28;20195;-61
2023/10/19 09:51:56;;;;;;;10.57;8.03;;;;;;;;;;6206239;28;20214;-61
2023/10/19 09:55:06;;;;;;;11.87;8.13;;;;;;;;;;6223535;28;20187;-62
2023/10/19 09:58:07;;;;;;;12.67;8.13;;;;;;;;;;6225563;28;20176;-62
2023/10/19 10:01:14;;;;;;;9.73;8.30;;;;;;;;;;6221719;28;20190;-62
2023/10/19 10:04:45;;;;;;;8.87;8.03;;;;;;;;;;6206693;28;20271;-61
2023/10/19 10:07:46;;;;;;;10.23;7.77;;;;;;;;;;6210637;28;20199;-60
2023/10/19 10:10:48;;;;;;;11.67;8.63;;;;;;;;;;6203986;28;20188;-62
2023/10/19 10:13:50;;;;;;;11.00;8.70;;;;;;;;;;6202694;28;20254;-61
2023/10/19 10:17:01;;;;;;;10.47;9.33;;;;;;;;;;6229073;28;20186;-65
2023/10/19 10:20:28;;;;;;;8.83;7.90;;;;;;;;;;6214291;28;20191;-64
2023/10/19 10:23:34;;;;;;;8.17;7.37;;;;;;;;;;6207908;28;20202;-64
2023/10/19 10:26:56;;;;;;;11.27;8.10;;;;;;;;;;6206194;28;20242;-64
2023/10/19 10:29:58;;;;;;;9.27;7.17;;;8.70;85.10;;;;;;6212301;28;20183;-64
2023/10/19 10:32:59;;;;;;;7.90;6.87;;;13.70;73.40;;;;;;6204239;28;20226;-61
2023/10/19 10:36:00;;;;;;;9.00;7.10;;;;;;;;;;6207111;28;20195;-61
2023/10/19 10:39:05;;;;;;;7.90;7.10;;;;;;;;;;6208621;28;20238;-61
2023/10/19 10:42:08;;;;;;;7.33;6.10;;;;;;;;;;6217597;28;20244;-61
2023/10/19 10:45:21;;;;;;;5.90;5.33;;;;;;;;;;6227860;28;20196;-62
2023/10/19 10:48:22;;;;;;;8.23;7.30;;;;;;;;;;6239686;28;20194;-62
2023/10/19 10:51:24;;;;;;;9.10;7.10;;;;;;;;;;6213317;28;20213;-61
2023/10/19 10:54:25;;;;;;;8.20;7.43;;;;;;;;;;6209664;28;20190;-61
2023/10/19 10:57:33;;;;;;;10.87;7.93;;;;;;;;;;6200976;28;20190;-62
2023/10/19 11:00:36;;;;;;;7.40;6.70;;;;;;;;;;6196775;28;20219;-62
2023/10/19 11:03:38;;;;;;;7.43;6.53;;;;;;;;;;6208839;28;20215;-62
2023/10/19 11:06:55;;;;;;;10.50;7.37;;;;;;;;;;6223839;28;20199;-62
2023/10/19 11:09:56;;;;;;;7.73;6.37;;;;;;;;;;6221957;28;20222;-61
2023/10/19 11:13:04;;;;;;;6.87;6.17;;;;;;;;;;6220737;28;20559;-62
2023/10/19 11:16:07;;;;;;;7.00;6.30;;;;;;;;;;6224778;28;20191;-62
2023/10/19 11:19:09;;;;;;;9.33;6.20;;;;;;;;;;6224823;28;20191;-62
2023/10/19 11:22:11;;;;;;;7.40;6.13;;;;;;;;;;6205974;28;20196;-62
2023/10/19 11:25:19;;;;;;;7.37;6.57;;;;;;;;;;6232623;28;20333;-62
2023/10/19 11:28:20;;;;;;;8.83;6.40;;;;;;;;;;6220075;28;20219;-62
2023/10/19 11:31:22;;;;;;;7.40;6.67;;;;;;;;;;6209666;28;20287;-61
2023/10/19 11:34:24;;;;;;;7.67;6.00;;;;;;;;;;6223786;28;20224;-65
2023/10/19 11:37:25;;;;;;;7.10;5.40;;;;;;;;;;6228142;28;20237;-62
2023/10/19 11:40:29;;;;;;;7.90;5.93;;;;;;;;;;6205096;28;20199;-62
2023/10/19 11:43:30;;;;;;;7.07;6.33;;;;;;;;;;6210787;28;20196;-62
2023/10/19 11:46:31;;;;;;;7.40;5.43;;;;;;;;;;6201368;28;20282;-62
2023/10/19 11:49:32;;;;;;;7.67;6.37;;;;;;;;;;6212246;28;20205;-61
2023/10/19 11:52:33;;;;;;;6.40;5.77;;;;;;;;;;6203460;28;20298;-61
2023/10/19 11:55:34;;;;;;;7.37;5.77;;;;;;;;;;6205165;28;20183;-61
2023/10/19 11:58:37;;;;;;;9.33;5.90;;;;;;;;;;6207790;28;20187;-61
2023/10/19 12:01:38;;;;;;;5.43;4.93;;;;;;;;;;6221073;28;20222;-63
2023/10/19 12:04:39;;;;;;;8.57;6.03;;;;;;;;;;6207986;28;20191;-62
2023/10/19 12:07:41;;;;;;;6.13;4.97;;;;;;;;;;6228731;28;20202;-61
2023/10/19 12:10:42;;;;;;;5.10;4.60;;;;;;;;;;6229338;28;20202;-62
2023/10/19 12:13:46;;;;;;;6.53;4.93;;;;;;;;;;6212516;28;20295;-62
2023/10/19 12:16:48;;;;;;;9.70;5.97;;;;;;;;;;6223981;28;20235;-61
2023/10/19 12:19:49;;;;;;;5.97;5.13;;;;;;;;;;6198304;28;20273;-62
2023/10/19 12:22:56;;;;;;;6.93;4.97;;;;;;;;;;6203055;28;20233;-62
2023/10/19 12:25:57;;;;;;;7.40;5.23;;;;;;;;;;6230372;28;20234;-61
2023/10/19 12:28:58;;;;;;;5.50;4.83;;;;;;;;;;6218152;28;20247;-62
2023/10/19 12:32:00;;;;;;;6.30;5.70;;;;;;;;;;6195651;28;20309;-62
2023/10/19 12:35:03;;;;;;;5.27;4.70;;;;;;;;;;6210990;28;20214;-62
2023/10/19 12:38:06;;;;;;;6.20;4.80;;;;;;;;;;6216745;28;20191;-61
2023/10/19 12:41:07;;;;;;;5.77;5.17;;;;;;;;;;6203609;28;20211;-61
2023/10/19 12:44:08;;;;;;;5.90;4.67;;;;;;;;;;6204571;28;20191;-62
2023/10/19 12:47:12;;;;;;;4.37;3.97;;;;;;;;;;6209120;28;20245;-62
2023/10/19 12:50:13;;;;;;;5.30;4.40;;;;;;;;;;6224117;28;20242;-61
2023/10/19 12:53:14;;;;;;;5.03;4.53;;;;;;;;;;6208890;28;20219;-61
2023/10/19 12:56:16;;;;;;;4.30;3.90;;;;;;;;;;6215517;28;20349;-62
2023/10/19 12:59:19;;;;;;;5.77;4.77;;;;;;;;;;6206124;28;20279;-62
2023/10/19 13:02:20;;;;;;;6.53;5.93;;;17.60;75.40;;;;;;6206092;28;20234;-61
2023/10/19 13:05:21;;;;;;;6.70;5.57;;;17.90;72.50;;;;;;6193780;28;20256;-62
2023/10/19 13:08:22;;;;;;;5.63;5.03;;;;;;;;;;6194861;28;20288;-62
2023/10/19 13:11:23;;;;;;;7.03;5.03;;;;;;;;;;6214295;28;20201;-62
2023/10/19 13:14:24;;;;;;;6.13;5.30;;;20.10;64.40;;;;;;6212399;28;20196;-62
2023/10/19 13:17:25;;;;;;;9.10;5.40;;;22.00;58.90;;;;;;6191102;28;20273;-62
2023/10/19 13:20:26;;;;;;;7.50;5.10;;;22.70;56.60;;;;;;6210597;28;20205;-63
2023/10/19 13:23:28;;;;;;;5.47;5.03;;;22.60;55.20;;;;;;6210976;28;20206;-62
2023/10/19 13:26:29;;;;;;;9.63;6.03;;;;;;;;;;6190975;28;20250;-62
2023/10/19 13:29:37;;;;;;;5.60;4.70;;;21.60;56.50;;;;;;6217927;28;20285;-62
2023/10/19 13:32:38;;;;;;;6.00;5.00;;;20.90;60.20;;;;;;6207617;28;20222;-62
2023/10/19 13:35:40;;;;;;;7.90;4.63;;;20.30;62.60;;;;;;6205259;28;20242;-63
2023/10/19 13:38:42;;;;;;;7.60;4.80;;;;;;;;;;6220260;28;20196;-62
2023/10/19 13:41:44;;;;;;;6.77;6.10;;;19.80;65.10;;;;;;6221410;28;20230;-61
2023/10/19 13:44:44;;;;;;;6.43;5.83;;;19.60;66.40;;;;;;6215549;28;20202;-61
2023/10/19 13:47:45;;;;;;;7.90;5.33;;;19.40;66.40;;;;;;6193928;28;20187;-62
2023/10/19 13:50:53;;;;;;;6.20;4.90;;;19.10;66.70;;;;;;6194656;28;20186;-62
2023/10/19 13:53:54;;;;;;;5.33;4.83;;;;;;;;;;6231494;28;20265;-62
2023/10/19 13:56:55;;;;;;;6.83;4.47;;;;;;;;;;6209041;28;20301;-62
2023/10/19 13:59:56;;;;;;;6.40;5.00;;;18.80;69.90;;;;;;6224352;28;20186;-61
2023/10/19 14:02:58;;;;;;;8.27;6.80;;;18.50;70.20;;;;;;6190704;28;20249;-62
2023/10/19 14:05:59;;;;;;;10.30;6.60;;;18.40;70.10;;;;;;6202592;28;20278;-62
2023/10/19 14:09:00;;;;;;;8.03;5.50;;;;;;;;;;6201721;28;20200;-62
2023/10/19 14:12:04;;;;;;;6.43;5.00;;;;;;;;;;6204742;28;20222;-62
2023/10/19 14:15:05;;;;;;;4.97;4.47;;;18.40;71.60;;;;;;6213159;28;20249;-62
2023/10/19 14:18:07;;;;;;;7.27;4.70;;;;;;;;;;6216869;28;20233;-62
2023/10/19 14:21:20;;;;;;;4.70;4.27;;;;;;;;;;6213715;28;20289;-62
2023/10/19 14:24:20;;;;;;;6.40;5.40;;;17.80;72.90;;;;;;6206743;28;20290;-62
2023/10/19 14:27:21;;;;;;;6.27;4.70;;;17.60;74.60;;;;;;6200076;28;20193;-60
2023/10/19 14:30:23;;;;;;;5.60;4.50;;;17.50;75.00;;;;;;6189103;28;20198;-60
2023/10/19 14:33:24;;;;;;;7.90;5.03;;;17.50;75.10;;;;;;6213117;28;20231;-59
2023/10/19 14:36:25;;;;;;;4.70;4.20;;;17.50;75.40;;;;;;6194141;28;20256;-60
2023/10/19 14:39:26;;;;;;;8.00;5.20;;;17.60;75.50;;;;;;6189817;28;20226;-60
2023/10/19 14:42:30;;;;;;;6.30;5.27;;;17.70;76.00;;;;;;6212202;28;20240;-60
2023/10/19 14:45:32;;;;;;;4.93;4.53;;;17.80;75.70;;;;;;6200160;28;20198;-60
2023/10/19 14:48:34;;;;;;;6.60;5.10;;;17.60;76.20;;;;;;6209534;28;20218;-59
2023/10/19 14:51:35;;;;;;;6.47;5.27;;;;;;;;;;6192832;28;20207;-60
2023/10/19 14:54:37;;;;;;;5.77;4.83;;;24.00;50.00;;;;;;6202942;28;20218;-61
2023/10/19 14:57:41;;;;;;;5.83;4.83;;;17.30;78.00;;;;;;6192869;28;20186;-61
2023/10/19 15:00:43;;;;;;;6.20;4.60;;;17.20;78.20;;;;;;6220363;28;20223;-61
2023/10/19 15:03:44;;;;;;;6.53;4.90;;;17.20;78.40;;;;;;6197609;28;20194;-61
2023/10/19 15:06:45;;;;;;;4.83;4.00;;;17.00;78.50;;;;;;6188094;28;20205;-62
2023/10/19 15:09:47;;;;;;;6.27;4.70;;;17.00;78.90;;;;;;6176479;28;20197;-62
2023/10/19 15:12:48;;;;;;;6.30;4.77;;;17.00;79.80;;;;;;6209125;28;20216;-61
2023/10/19 15:15:49;;;;;;;4.83;4.37;;;;;;;;;;6220143;28;20277;-62
2023/10/19 15:18:50;;;;;;;6.37;5.33;;;16.80;81.00;;;;;;6209167;28;20191;-62
2023/10/19 15:21:50;;;;;;;5.10;4.67;;;16.60;80.70;;;;;;6198039;28;20195;-62
2023/10/19 15:24:54;;;;;;;5.13;4.50;;;16.50;80.90;;;;;;6185936;28;20238;-62
2023/10/19 15:27:56;;;;;;;6.53;4.50;;;;;;;;;;6200910;28;20199;-62
2023/10/19 15:30:57;;;;;;;7.93;5.03;;;;;;;;;;6200978;28;20194;-62
2023/10/19 15:33:58;;;;;;;5.70;4.53;;;16.50;81.90;;;;;;6200490;28;20241;-61
2023/10/19 15:36:58;;;;;;;5.13;4.37;;;16.00;82.50;;;;;;6191775;28;20227;-62
2023/10/19 15:39:59;;;;;;;7.10;4.57;;;15.90;83.10;;;;;;6194448;28;20195;-63
2023/10/19 15:43:00;;;;;;;4.83;4.20;;;15.80;84.00;;;;;;6187513;28;20234;-61
2023/10/19 15:46:02;;;;;;;5.83;4.30;;;15.70;84.10;;;;;;6218717;28;20187;-61
2023/10/19 15:49:03;;;;;;;5.97;3.93;;;15.60;84.00;;;;;;6203664;28;20244;-61
2023/10/19 15:52:05;;;;;;;3.90;3.60;;;15.60;84.20;;;;;;6194124;28;20214;-63
2023/10/19 15:55:07;;;;;;;4.33;3.93;;;;;;;;;;6190538;28;20202;-61
2023/10/19 15:58:10;;;;;;;6.70;4.90;;;15.40;84.30;;;;;;6229367;28;20278;-67
2023/10/19 16:01:10;;;;;;;5.57;4.57;;;15.30;85.00;;;;;;6189340;28;20203;-62
2023/10/19 16:04:11;;;;;;;7.80;4.43;;;15.00;84.80;;;;;;6196378;28;20240;-61
2023/10/19 16:07:14;;;;;;;7.57;4.80;;;15.00;85.20;;;;;;6197559;28;20197;-61
2023/10/19 16:10:16;;;;;;;5.27;4.77;;;14.90;86.40;;;;;;6214279;28;20227;-60
2023/10/19 16:13:16;;;;;;;4.50;4.03;;;14.80;86.70;;;;;;6215800;28;20279;-61
2023/10/19 16:16:18;;;;;;;5.30;4.57;;;;;;;;;;6190077;28;20190;-61
2023/10/19 16:19:19;;;;;;;9.40;7.00;;;;;;;;;;6221451;28;20214;-61
2023/10/19 16:22:21;;;;;;;9.40;6.10;;;;;;;;;;6210834;28;20204;-61
2023/10/19 16:25:22;;;;;;;12.30;9.03;;;24.00;50.00;;;;;;6208857;28;20247;-61
2023/10/19 16:28:23;;;;;;;16.13;12.77;;;14.40;87.50;;;;;;6200429;28;20193;-61
2023/10/19 16:31:24;;;;;;;12.53;9.50;;;14.30;87.50;;;;;;6191782;28;20195;-61